Hot Springs, Ingalls Field (KHSP)

NameIngalls Field
CityHot Springs
CountryUnited States
ICAOKHSP
IATA
Altitude1156 m
CoordinatesGoogle Map
Live Air TrafficLiveATC.net
METARKHSP 101055Z AUTO 34008KT 10SM CLR M01/M02 A2997 RMK AO2 T10061025
2018-12-10 10:55:00 Wind: North-Northwest (340°) 4.12 m/s - Visibility: 16093.4 m - Temperature: -1 °C - Dew point: -2 °C - Humidity: 93% - Pressure: 1014.9 hPa
Statistics

The table below shows the detailed information of all flights to/from Hot Springs, Ingalls Field (KHSP).